sensor_id;sensor_type;location;lat;lon;timestamp;pressure;altitude;pressure_sealevel;temperature;humidity
60371;BME280;48550;40.588;49.684;2023-03-05T00:02:14;101869.34;;;5.68;100.00
60371;BME280;48550;40.588;49.684;2023-03-05T00:04:40;101865.53;;;5.63;100.00
60371;BME280;48550;40.588;49.684;2023-03-05T00:07:05;101871.03;;;5.61;100.00
60371;BME280;48550;40.588;49.684;2023-03-05T00:09:33;101869.38;;;5.60;100.00
60371;BME280;48550;40.588;49.684;2023-03-05T00:11:59;101865.72;;;5.61;100.00
60371;BME280;48550;40.588;49.684;2023-03-05T00:14:25;101881.72;;;5.53;100.00
60371;BME280;48550;40.588;49.684;2023-03-05T00:16:50;101869.25;;;5.54;100.00
60371;BME280;48550;40.588;49.684;2023-03-05T00:19:16;101869.53;;;5.67;100.00
60371;BME280;48550;40.588;49.684;2023-03-05T00:21:42;101866.78;;;5.83;100.00
60371;BME280;48550;40.588;49.684;2023-03-05T00:24:12;101883.47;;;5.77;100.00
60371;BME280;48550;40.588;49.684;2023-03-05T00:26:38;101875.13;;;5.80;100.00
60371;BME280;48550;40.588;49.684;2023-03-05T00:29:05;101866.22;;;5.57;100.00
60371;BME280;48550;40.588;49.684;2023-03-05T00:31:33;101862.97;;;5.38;100.00
60371;BME280;48550;40.588;49.684;2023-03-05T00:34:11;101867.47;;;5.30;100.00
60371;BME280;48550;40.588;49.684;2023-03-05T00:36:46;101868.16;;;5.24;100.00
60371;BME280;48550;40.588;49.684;2023-03-05T00:39:12;101876.97;;;5.16;100.00
60371;BME280;48550;40.588;49.684;2023-03-05T00:41:38;101880.28;;;5.26;100.00
60371;BME280;48550;40.588;49.684;2023-03-05T00:44:04;101869.47;;;5.28;100.00
60371;BME280;48550;40.588;49.684;2023-03-05T00:46:30;101874.66;;;5.21;100.00
60371;BME280;48550;40.588;49.684;2023-03-05T00:48:56;101875.97;;;5.25;100.00
60371;BME280;48550;40.588;49.684;2023-03-05T00:51:22;101878.63;;;5.25;100.00
60371;BME280;48550;40.588;49.684;2023-03-05T00:53:48;101864.81;;;5.30;100.00
60371;BME280;48550;40.588;49.684;2023-03-05T00:56:14;101874.28;;;5.32;100.00
60371;BME280;48550;40.588;49.684;2023-03-05T00:58:40;101866.31;;;5.32;100.00
60371;BME280;48550;40.588;49.684;2023-03-05T01:01:06;101868.63;;;5.35;100.00
60371;BME280;48550;40.588;49.684;2023-03-05T01:03:33;101879.63;;;5.24;100.00
60371;BME280;48550;40.588;49.684;2023-03-05T01:06:00;101888.28;;;5.18;100.00
60371;BME280;48550;40.588;49.684;2023-03-05T01:08:28;101890.25;;;5.16;100.00
60371;BME280;48550;40.588;49.684;2023-03-05T01:10:53;101879.63;;;5.16;100.00
60371;BME280;48550;40.588;49.684;2023-03-05T01:13:20;101867.16;;;5.00;100.00
60371;BME280;48550;40.588;49.684;2023-03-05T01:15:46;101868.00;;;4.93;100.00
60371;BME280;48550;40.588;49.684;2023-03-05T01:18:16;101868.84;;;4.85;100.00
60371;BME280;48550;40.588;49.684;2023-03-05T01:20:42;101875.50;;;4.81;100.00
60371;BME280;48550;40.588;49.684;2023-03-05T01:23:08;101884.13;;;4.83;100.00
60371;BME280;48550;40.588;49.684;2023-03-05T01:25:34;101883.81;;;4.78;100.00
60371;BME280;48550;40.588;49.684;2023-03-05T01:28:00;101878.31;;;4.79;100.00
60371;BME280;48550;40.588;49.684;2023-03-05T01:30:26;101887.81;;;4.82;100.00
60371;BME280;48550;40.588;49.684;2023-03-05T01:32:52;101889.78;;;4.80;100.00
60371;BME280;48550;40.588;49.684;2023-03-05T01:35:22;101886.81;;;4.83;100.00
60371;BME280;48550;40.588;49.684;2023-03-05T01:37:48;101890.78;;;4.87;100.00
60371;BME280;48550;40.588;49.684;2023-03-05T01:40:17;101883.31;;;4.83;100.00
60371;BME280;48550;40.588;49.684;2023-03-05T01:42:48;101882.16;;;4.85;100.00
60371;BME280;48550;40.588;49.684;2023-03-05T01:45:17;101886.13;;;4.81;100.00
60371;BME280;48550;40.588;49.684;2023-03-05T01:47:43;101886.97;;;4.82;100.00
60371;BME280;48550;40.588;49.684;2023-03-05T01:50:13;101885.31;;;4.81;100.00
60371;BME280;48550;40.588;49.684;2023-03-05T01:52:43;101876.16;;;4.83;100.00
60371;BME280;48550;40.588;49.684;2023-03-05T01:55:20;101882.16;;;4.85;100.00
60371;BME280;48550;40.588;49.684;2023-03-05T01:58:07;101878.66;;;4.85;100.00
60371;BME280;48550;40.588;49.684;2023-03-05T02:00:38;101870.84;;;4.83;100.00
60371;BME280;48550;40.588;49.684;2023-03-05T02:03:07;101891.63;;;4.96;100.00
60371;BME280;48550;40.588;49.684;2023-03-05T02:05:36;101889.78;;;4.88;100.00
60371;BME280;48550;40.588;49.684;2023-03-05T02:08:07;101878.66;;;4.85;100.00
60371;BME280;48550;40.588;49.684;2023-03-05T02:10:37;101884.13;;;4.83;100.00
60371;BME280;48550;40.588;49.684;2023-03-05T02:13:09;101886.31;;;4.88;100.00
60371;BME280;48550;40.588;49.684;2023-03-05T02:15:36;101888.47;;;4.92;100.00
60371;BME280;48550;40.588;49.684;2023-03-05T02:18:04;101878.00;;;4.91;100.00
60371;BME280;48550;40.588;49.684;2023-03-05T02:20:51;101881.97;;;4.95;100.00
60371;BME280;48550;40.588;49.684;2023-03-05T02:23:20;101873.66;;;4.90;100.00
60371;BME280;48550;40.588;49.684;2023-03-05T02:25:47;101881.97;;;4.95;100.00
60371;BME280;48550;40.588;49.684;2023-03-05T02:28:17;101884.97;;;5.00;100.00
60371;BME280;48550;40.588;49.684;2023-03-05T02:30:44;101870.16;;;5.05;100.00
60371;BME280;48550;40.588;49.684;2023-03-05T02:33:13;101863.84;;;5.06;100.00
60371;BME280;48550;40.588;49.684;2023-03-05T02:35:39;101856.00;;;5.13;100.00
60371;BME280;48550;40.588;49.684;2023-03-05T02:38:05;101847.69;;;5.16;100.00
60371;BME280;48550;40.588;49.684;2023-03-05T02:40:30;101871.66;;;5.24;100.00
60371;BME280;48550;40.588;49.684;2023-03-05T02:42:56;101859.84;;;5.27;100.00
60371;BME280;48550;40.588;49.684;2023-03-05T02:45:22;101857.00;;;5.28;100.00
60371;BME280;48550;40.588;49.684;2023-03-05T02:47:47;101861.50;;;5.28;100.00
60371;BME280;48550;40.588;49.684;2023-03-05T02:50:13;101860.00;;;5.25;100.00
60371;BME280;48550;40.588;49.684;2023-03-05T02:52:39;101863.31;;;5.27;100.00
60371;BME280;48550;40.588;49.684;2023-03-05T02:55:05;101846.03;;;5.23;100.00
60371;BME280;48550;40.588;49.684;2023-03-05T02:57:31;101820.72;;;5.19;100.00
60371;BME280;48550;40.588;49.684;2023-03-05T02:59:56;101827.56;;;5.22;100.00
60371;BME280;48550;40.588;49.684;2023-03-05T03:02:22;101843.84;;;5.19;100.00
60371;BME280;48550;40.588;49.684;2023-03-05T03:04:48;101851.19;;;5.25;100.00
60371;BME280;48550;40.588;49.684;2023-03-05T03:07:14;101862.19;;;5.22;100.00
60371;BME280;48550;40.588;49.684;2023-03-05T03:09:40;101862.00;;;5.15;100.00
60371;BME280;48550;40.588;49.684;2023-03-05T03:12:08;101862.81;;;5.16;100.00
60371;BME280;48550;40.588;49.684;2023-03-05T03:14:36;101859.31;;;5.15;100.00
60371;BME280;48550;40.588;49.684;2023-03-05T03:17:08;101844.84;;;5.18;100.00
60371;BME280;48550;40.588;49.684;2023-03-05T03:19:35;101830.72;;;5.17;100.00
60371;BME280;48550;40.588;49.684;2023-03-05T03:22:02;101820.59;;;5.13;100.00
60371;BME280;48550;40.588;49.684;2023-03-05T03:24:31;101834.22;;;5.18;100.00
60371;BME280;48550;40.588;49.684;2023-03-05T03:26:57;101828.41;;;5.22;100.00
60371;BME280;48550;40.588;49.684;2023-03-05T03:29:23;101821.91;;;5.25;100.00
60371;BME280;48550;40.588;49.684;2023-03-05T03:31:49;101834.53;;;5.31;100.00
60371;BME280;48550;40.588;49.684;2023-03-05T03:34:16;101841.31;;;5.41;100.00
60371;BME280;48550;40.588;49.684;2023-03-05T03:36:46;101843.31;;;5.48;100.00
60371;BME280;48550;40.588;49.684;2023-03-05T03:39:13;101837.31;;;5.46;100.00
60371;BME280;48550;40.588;49.684;2023-03-05T03:41:44;101833.31;;;5.50;100.00
60371;BME280;48550;40.588;49.684;2023-03-05T03:44:11;101833.13;;;5.51;100.00
60371;BME280;48550;40.588;49.684;2023-03-05T03:46:38;101832.28;;;5.59;100.00
60371;BME280;48550;40.588;49.684;2023-03-05T03:49:05;101832.28;;;5.59;100.00
60371;BME280;48550;40.588;49.684;2023-03-05T03:51:31;101827.25;;;5.64;100.00
60371;BME280;48550;40.588;49.684;2023-03-05T03:53:58;101826.59;;;5.62;100.00
60371;BME280;48550;40.588;49.684;2023-03-05T03:56:24;101827.09;;;5.65;100.00
60371;BME280;48550;40.588;49.684;2023-03-05T03:58:51;101810.44;;;5.63;100.00
60371;BME280;48550;40.588;49.684;2023-03-05T04:01:18;101837.53;;;5.75;100.00
60371;BME280;48550;40.588;49.684;2023-03-05T04:03:44;101832.84;;;5.77;100.00
60371;BME280;48550;40.588;49.684;2023-03-05T04:06:11;101818.19;;;5.81;100.00
60371;BME280;48550;40.588;49.684;2023-03-05T04:08:37;101820.97;;;5.88;100.00
60371;BME280;48550;40.588;49.684;2023-03-05T04:11:02;101818.16;;;5.97;100.00
60371;BME280;48550;40.588;49.684;2023-03-05T04:13:28;101820.94;;;6.04;100.00
60371;BME280;48550;40.588;49.684;2023-03-05T04:15:54;101836.84;;;6.20;100.00
60371;BME280;48550;40.588;49.684;2023-03-05T04:18:21;101831.22;;;6.38;100.00
60371;BME280;48550;40.588;49.684;2023-03-05T04:20:47;101828.41;;;6.54;100.00
60371;BME280;48550;40.588;49.684;2023-03-05T04:23:13;101843.59;;;6.77;100.00
60371;BME280;48550;40.588;49.684;2023-03-05T04:25:39;101844.25;;;6.79;100.00
60371;BME280;48550;40.588;49.684;2023-03-05T04:28:05;101833.13;;;6.90;100.00
60371;BME280;48550;40.588;49.684;2023-03-05T04:30:30;101835.25;;;6.94;100.00
60371;BME280;48550;40.588;49.684;2023-03-05T04:32:56;101823.22;;;6.98;100.00
60371;BME280;48550;40.588;49.684;2023-03-05T04:35:22;101831.13;;;7.07;100.00
60371;BME280;48550;40.588;49.684;2023-03-05T04:37:48;101817.31;;;7.03;100.00
60371;BME280;48550;40.588;49.684;2023-03-05T04:42:39;101820.28;;;7.08;100.00
60371;BME280;48550;40.588;49.684;2023-03-05T04:45:06;101838.88;;;7.16;100.00
60371;BME280;48550;40.588;49.684;2023-03-05T04:47:33;101836.84;;;7.18;100.00
60371;BME280;48550;40.588;49.684;2023-03-05T04:49:59;101838.44;;;7.27;100.00
60371;BME280;48550;40.588;49.684;2023-03-05T04:52:25;101837.41;;;7.28;100.00
60371;BME280;48550;40.588;49.684;2023-03-05T04:54:51;101842.75;;;7.28;100.00
60371;BME280;48550;40.588;49.684;2023-03-05T04:57:18;101851.13;;;7.40;100.00
60371;BME280;48550;40.588;49.684;2023-03-05T04:59:44;101859.09;;;7.48;100.00
60371;BME280;48550;40.588;49.684;2023-03-05T05:02:10;101860.81;;;7.71;100.00
60371;BME280;48550;40.588;49.684;2023-03-05T05:04:36;101863.00;;;7.96;100.00
60371;BME280;48550;40.588;49.684;2023-03-05T05:07:02;101857.34;;;8.21;100.00
60371;BME280;48550;40.588;49.684;2023-03-05T05:09:29;101860.25;;;8.41;100.00
60371;BME280;48550;40.588;49.684;2023-03-05T05:11:55;101853.44;;;8.38;100.00
60371;BME280;48550;40.588;49.684;2023-03-05T05:14:21;101851.06;;;8.93;100.00
60371;BME280;48550;40.588;49.684;2023-03-05T05:16:47;101849.75;;;9.79;100.00
60371;BME280;48550;40.588;49.684;2023-03-05T05:19:12;101831.09;;;10.18;100.00
60371;BME280;48550;40.588;49.684;2023-03-05T05:21:38;101832.09;;;10.04;100.00
60371;BME280;48550;40.588;49.684;2023-03-05T05:24:04;101829.78;;;10.56;100.00
60371;BME280;48550;40.588;49.684;2023-03-05T05:26:30;101825.84;;;10.98;100.00
60371;BME280;48550;40.588;49.684;2023-03-05T05:28:56;101824.22;;;11.74;100.00
60371;BME280;48550;40.588;49.684;2023-03-05T05:31:21;101813.03;;;12.29;100.00
60371;BME280;48550;40.588;49.684;2023-03-05T05:33:47;101810.44;;;12.72;98.42
60371;BME280;48550;40.588;49.684;2023-03-05T05:36:15;101822.41;;;13.26;93.90
60371;BME280;48550;40.588;49.684;2023-03-05T05:38:43;101822.78;;;13.04;91.03
60371;BME280;48550;40.588;49.684;2023-03-05T05:41:12;101819.28;;;12.79;94.52
60371;BME280;48550;40.588;49.684;2023-03-05T05:43:38;101819.72;;;12.76;91.40
60371;BME280;48550;40.588;49.684;2023-03-05T05:46:12;101810.09;;;12.62;94.15
60371;BME280;48550;40.588;49.684;2023-03-05T05:48:38;101802.56;;;13.57;85.64
60371;BME280;48550;40.588;49.684;2023-03-05T05:51:12;101809.84;;;13.56;85.42
60371;BME280;48550;40.588;49.684;2023-03-05T05:53:39;101804.91;;;13.53;80.86
60371;BME280;48550;40.588;49.684;2023-03-05T05:56:06;101803.38;;;13.76;82.31
60371;BME280;48550;40.588;49.684;2023-03-05T05:58:34;101799.00;;;14.76;72.78
60371;BME280;48550;40.588;49.684;2023-03-05T06:00:59;101813.47;;;14.70;69.68
60371;BME280;48550;40.588;49.684;2023-03-05T06:03:25;101795.59;;;13.67;77.33
60371;BME280;48550;40.588;49.684;2023-03-05T06:05:51;101786.97;;;13.77;73.51
60371;BME280;48550;40.588;49.684;2023-03-05T06:08:17;101791.53;;;14.07;69.32
60371;BME280;48550;40.588;49.684;2023-03-05T06:10:43;101784.84;;;14.39;61.37
60371;BME280;48550;40.588;49.684;2023-03-05T06:13:09;101778.69;;;13.90;64.45
60371;BME280;48550;40.588;49.684;2023-03-05T06:15:34;101774.75;;;13.20;68.93
60371;BME280;48550;40.588;49.684;2023-03-05T06:18:00;101782.84;;;13.75;67.42
60371;BME280;48550;40.588;49.684;2023-03-05T06:20:27;101776.63;;;13.38;69.42
60371;BME280;48550;40.588;49.684;2023-03-05T06:22:53;101781.09;;;12.64;71.85
60371;BME280;48550;40.588;49.684;2023-03-05T06:25:19;101798.09;;;13.08;67.06
60371;BME280;48550;40.588;49.684;2023-03-05T06:27:45;101779.38;;;13.13;66.56
60371;BME280;48550;40.588;49.684;2023-03-05T06:30:11;101777.53;;;13.68;61.52
60371;BME280;48550;40.588;49.684;2023-03-05T06:32:37;101762.56;;;14.55;57.78
60371;BME280;48550;40.588;49.684;2023-03-05T06:35:03;101755.31;;;14.68;56.60
60371;BME280;48550;40.588;49.684;2023-03-05T06:37:29;101756.44;;;14.07;59.23
60371;BME280;48550;40.588;49.684;2023-03-05T06:39:55;101749.78;;;13.06;64.54
60371;BME280;48550;40.588;49.684;2023-03-05T06:42:20;101744.78;;;12.41;68.86
60371;BME280;48550;40.588;49.684;2023-03-05T06:44:46;101734.03;;;12.41;69.65
60371;BME280;48550;40.588;49.684;2023-03-05T06:47:12;101732.03;;;12.55;68.21
60371;BME280;48550;40.588;49.684;2023-03-05T06:49:39;101733.75;;;12.50;69.55
60371;BME280;48550;40.588;49.684;2023-03-05T06:52:06;101726.97;;;13.09;65.72
60371;BME280;48550;40.588;49.684;2023-03-05T06:54:34;101726.06;;;12.96;68.00
60371;BME280;48550;40.588;49.684;2023-03-05T06:57:00;101725.31;;;13.62;64.09
60371;BME280;48550;40.588;49.684;2023-03-05T06:59:25;101732.84;;;14.02;62.20
60371;BME280;48550;40.588;49.684;2023-03-05T07:01:51;101716.06;;;13.22;66.22
60371;BME280;48550;40.588;49.684;2023-03-05T07:04:17;101718.25;;;12.45;70.75
60371;BME280;48550;40.588;49.684;2023-03-05T07:06:43;101709.78;;;12.41;73.10
60371;BME280;48550;40.588;49.684;2023-03-05T07:09:12;101709.75;;;13.10;68.56
60371;BME280;48550;40.588;49.684;2023-03-05T07:11:39;101696.69;;;13.61;65.05
60371;BME280;48550;40.588;49.684;2023-03-05T07:14:05;101686.44;;;14.23;61.71
60371;BME280;48550;40.588;49.684;2023-03-05T07:16:32;101704.16;;;15.53;55.40
60371;BME280;48550;40.588;49.684;2023-03-05T07:19:01;101687.88;;;15.76;54.24
60371;BME280;48550;40.588;49.684;2023-03-05T07:21:29;101688.28;;;15.85;52.93
60371;BME280;48550;40.588;49.684;2023-03-05T07:23:58;101680.81;;;15.92;52.68
60371;BME280;48550;40.588;49.684;2023-03-05T07:26:24;101674.81;;;14.81;56.44
60371;BME280;48550;40.588;49.684;2023-03-05T07:28:50;101664.00;;;14.35;58.25
60371;BME280;48550;40.588;49.684;2023-03-05T07:31:18;101651.91;;;14.37;57.87
60371;BME280;48550;40.588;49.684;2023-03-05T07:33:49;101647.31;;;14.14;57.72
60371;BME280;48550;40.588;49.684;2023-03-05T07:36:15;101653.75;;;14.02;58.97
60371;BME280;48550;40.588;49.684;2023-03-05T07:38:41;101648.81;;;13.57;61.75
60371;BME280;48550;40.588;49.684;2023-03-05T07:41:16;101647.22;;;13.67;60.81
60371;BME280;48550;40.588;49.684;2023-03-05T07:43:47;101632.69;;;13.68;59.64
60371;BME280;48550;40.588;49.684;2023-03-05T07:46:15;101639.84;;;13.75;59.09
60371;BME280;48550;40.588;49.684;2023-03-05T07:48:41;101637.00;;;13.58;60.93
60371;BME280;48550;40.588;49.684;2023-03-05T07:51:10;101634.91;;;13.72;61.68
60371;BME280;48550;40.588;49.684;2023-03-05T07:53:39;101633.50;;;13.69;61.38
60371;BME280;48550;40.588;49.684;2023-03-05T07:56:06;101636.06;;;13.64;61.61
60371;BME280;48550;40.588;49.684;2023-03-05T07:58:31;101615.63;;;13.56;63.10
60371;BME280;48550;40.588;49.684;2023-03-05T08:00:57;101614.31;;;13.47;64.21
60371;BME280;48550;40.588;49.684;2023-03-05T08:03:23;101594.44;;;13.72;62.99
60371;BME280;48550;40.588;49.684;2023-03-05T08:05:49;101563.41;;;13.39;65.08
60371;BME280;48550;40.588;49.684;2023-03-05T08:08:14;101570.16;;;13.60;64.60
60371;BME280;48550;40.588;49.684;2023-03-05T08:10:41;101564.66;;;13.78;65.49
60371;BME280;48550;40.588;49.684;2023-03-05T08:13:06;101555.38;;;13.62;64.83
60371;BME280;48550;40.588;49.684;2023-03-05T08:15:32;101542.03;;;13.79;63.93
60371;BME280;48550;40.588;49.684;2023-03-05T08:17:58;101526.66;;;13.91;64.62
60371;BME280;48550;40.588;49.684;2023-03-05T08:20:24;101514.22;;;13.79;63.83
60371;BME280;48550;40.588;49.684;2023-03-05T08:22:50;101532.63;;;13.70;64.00
60371;BME280;48550;40.588;49.684;2023-03-05T08:25:16;101525.38;;;13.82;65.25
60371;BME280;48550;40.588;49.684;2023-03-05T08:27:44;101522.44;;;13.95;66.41
60371;BME280;48550;40.588;49.684;2023-03-05T08:30:12;101514.34;;;13.95;63.44
60371;BME280;48550;40.588;49.684;2023-03-05T08:32:38;101508.81;;;14.02;61.94
60371;BME280;48550;40.588;49.684;2023-03-05T08:35:05;101511.28;;;14.27;61.27
60371;BME280;48550;40.588;49.684;2023-03-05T08:37:31;101493.44;;;14.03;63.52
60371;BME280;48550;40.588;49.684;2023-03-05T08:39:57;101466.22;;;13.92;62.53
60371;BME280;48550;40.588;49.684;2023-03-05T08:42:23;101452.38;;;13.89;62.62
60371;BME280;48550;40.588;49.684;2023-03-05T08:44:49;101448.88;;;13.65;63.50
60371;BME280;48550;40.588;49.684;2023-03-05T08:47:16;101442.19;;;13.67;64.37
60371;BME280;48550;40.588;49.684;2023-03-05T08:49:43;101439.03;;;13.71;65.76
60371;BME280;48550;40.588;49.684;2023-03-05T08:52:08;101430.09;;;13.82;64.53
60371;BME280;48550;40.588;49.684;2023-03-05T08:54:36;101426.81;;;13.91;63.99
60371;BME280;48550;40.588;49.684;2023-03-05T08:57:02;101417.94;;;13.67;66.12
60371;BME280;48550;40.588;49.684;2023-03-05T08:59:28;101402.50;;;14.03;64.32
60371;BME280;48550;40.588;49.684;2023-03-05T09:01:54;101384.41;;;14.04;63.60
60371;BME280;48550;40.588;49.684;2023-03-05T09:04:20;101370.91;;;14.15;64.02
60371;BME280;48550;40.588;49.684;2023-03-05T09:06:45;101349.31;;;14.44;63.04
60371;BME280;48550;40.588;49.684;2023-03-05T09:09:11;101352.47;;;14.41;62.63
60371;BME280;48550;40.588;49.684;2023-03-05T09:11:38;101337.16;;;14.29;62.97
60371;BME280;48550;40.588;49.684;2023-03-05T09:14:05;101330.50;;;14.20;64.09
60371;BME280;48550;40.588;49.684;2023-03-05T09:16:32;101327.59;;;14.10;65.94
60371;BME280;48550;40.588;49.684;2023-03-05T09:18:58;101341.94;;;13.99;66.14
60371;BME280;48550;40.588;49.684;2023-03-05T09:21:24;101325.13;;;14.20;65.29
60371;BME280;48550;40.588;49.684;2023-03-05T09:23:51;101326.06;;;14.14;66.53
60371;BME280;48550;40.588;49.684;2023-03-05T09:26:17;101332.72;;;14.23;65.51
60371;BME280;48550;40.588;49.684;2023-03-05T09:28:44;101321.94;;;13.83;67.76
60371;BME280;48550;40.588;49.684;2023-03-05T09:31:10;101306.28;;;13.97;68.21
60371;BME280;48550;40.588;49.684;2023-03-05T09:33:37;101285.78;;;14.24;67.08
60371;BME280;48550;40.588;49.684;2023-03-05T09:36:05;101285.44;;;14.21;66.93
60371;BME280;48550;40.588;49.684;2023-03-05T09:38:38;101276.53;;;14.37;66.14
60371;BME280;48550;40.588;49.684;2023-03-05T09:46:45;101266.09;;;14.74;64.93
60371;BME280;48550;40.588;49.684;2023-03-05T09:51:42;101264.47;;;14.56;66.17
60371;BME280;48550;40.588;49.684;2023-03-05T09:54:21;101254.03;;;14.31;67.96
60371;BME280;48550;40.588;49.684;2023-03-05T09:56:52;101255.38;;;14.46;69.03
60371;BME280;48550;40.588;49.684;2023-03-05T10:01:55;101248.72;;;14.08;69.18
60371;BME280;48550;40.588;49.684;2023-03-05T10:04:41;101253.84;;;14.21;69.25
60371;BME280;48550;40.588;49.684;2023-03-05T10:07:16;101255.50;;;14.22;70.12
60371;BME280;48550;40.588;49.684;2023-03-05T10:10:20;101239.94;;;14.29;68.99
60371;BME280;48550;40.588;49.684;2023-03-05T10:13:01;101219.09;;;14.25;69.16
60371;BME280;48550;40.588;49.684;2023-03-05T10:16:23;101229.81;;;14.37;68.93
60371;BME280;48550;40.588;49.684;2023-03-05T10:21:23;101217.56;;;14.00;71.89
60371;BME280;48550;40.588;49.684;2023-03-05T10:27:01;101199.31;;;13.91;71.42
60371;BME280;48550;40.588;49.684;2023-03-05T10:32:54;101186.88;;;13.90;72.47
60371;BME280;48550;40.588;49.684;2023-03-05T10:43:30;101179.25;;;14.15;71.57
60371;BME280;48550;40.588;49.684;2023-03-05T10:46:02;101177.84;;;14.13;73.00
60371;BME280;48550;40.588;49.684;2023-03-05T10:48:45;101157.47;;;14.22;72.02
60371;BME280;48550;40.588;49.684;2023-03-05T10:51:19;101156.78;;;13.98;73.83
60371;BME280;48550;40.588;49.684;2023-03-05T10:53:58;101168.75;;;14.02;75.27
60371;BME280;48550;40.588;49.684;2023-03-05T10:56:27;101161.78;;;14.06;72.79
60371;BME280;48550;40.588;49.684;2023-03-05T10:58:53;101157.53;;;14.10;73.16
60371;BME280;48550;40.588;49.684;2023-03-05T11:01:26;101167.63;;;14.15;73.29
60371;BME280;48550;40.588;49.684;2023-03-05T11:04:01;101177.03;;;14.12;73.66
60371;BME280;48550;40.588;49.684;2023-03-05T11:06:39;101174.63;;;13.99;74.02
60371;BME280;48550;40.588;49.684;2023-03-05T11:12:17;101163.03;;;14.15;74.54
60371;BME280;48550;40.588;49.684;2023-03-05T11:15:00;101160.59;;;14.14;74.57
60371;BME280;48550;40.588;49.684;2023-03-05T11:17:33;101154.78;;;14.22;74.61
60371;BME280;48550;40.588;49.684;2023-03-05T11:23:23;101152.91;;;14.22;75.00
60371;BME280;48550;40.588;49.684;2023-03-05T11:28:26;101147.59;;;14.27;74.78
60371;BME280;48550;40.588;49.684;2023-03-05T11:34:04;101118.53;;;14.35;74.34
60371;BME280;48550;40.588;49.684;2023-03-05T11:36:32;101130.88;;;14.30;75.17
60371;BME280;48550;40.588;49.684;2023-03-05T11:44:22;101112.72;;;14.26;76.84
60371;BME280;48550;40.588;49.684;2023-03-05T11:46:55;101124.09;;;14.28;76.70
60371;BME280;48550;40.588;49.684;2023-03-05T11:49:25;101131.81;;;14.19;77.24
60371;BME280;48550;40.588;49.684;2023-03-05T11:52:07;101137.78;;;14.21;77.66
60371;BME280;48550;40.588;49.684;2023-03-05T11:55:09;101135.47;;;14.13;78.72
60371;BME280;48550;40.588;49.684;2023-03-05T11:58:03;101137.16;;;14.03;81.29
60371;BME280;48550;40.588;49.684;2023-03-05T12:00:37;101147.72;;;14.04;80.32
60371;BME280;48550;40.588;49.684;2023-03-05T12:03:18;101143.97;;;14.05;80.31
60371;BME280;48550;40.588;49.684;2023-03-05T12:05:47;101149.44;;;14.10;81.34
60371;BME280;48550;40.588;49.684;2023-03-05T12:08:19;101152.13;;;14.10;81.92
60371;BME280;48550;40.588;49.684;2023-03-05T12:10:47;101136.53;;;14.12;81.46
60371;BME280;48550;40.588;49.684;2023-03-05T12:13:33;101142.28;;;14.16;81.09
60371;BME280;48550;40.588;49.684;2023-03-05T12:19:02;101116.97;;;14.39;80.85
60371;BME280;48550;40.588;49.684;2023-03-05T12:21:35;101106.66;;;14.36;83.58
60371;BME280;48550;40.588;49.684;2023-03-05T12:31:59;101090.41;;;13.80;91.90
60371;BME280;48550;40.588;49.684;2023-03-05T12:34:35;101089.56;;;13.80;92.39
60371;BME280;48550;40.588;49.684;2023-03-05T12:47:44;101097.19;;;13.99;88.35
60371;BME280;48550;40.588;49.684;2023-03-05T12:53:06;101098.00;;;14.17;83.63
60371;BME280;48550;40.588;49.684;2023-03-05T12:58:12;101102.03;;;14.14;82.80
60371;BME280;48550;40.588;49.684;2023-03-05T13:00:46;101098.84;;;14.17;82.92
60371;BME280;48550;40.588;49.684;2023-03-05T13:03:25;101101.44;;;14.29;81.27
60371;BME280;48550;40.588;49.684;2023-03-05T13:05:53;101084.91;;;14.25;81.38
60371;BME280;48550;40.588;49.684;2023-03-05T13:08:23;101076.56;;;14.44;79.25
60371;BME280;48550;40.588;49.684;2023-03-05T13:11:15;101064.59;;;14.40;77.92
60371;BME280;48550;40.588;49.684;2023-03-05T13:13:44;101071.97;;;14.44;79.16
60371;BME280;48550;40.588;49.684;2023-03-05T13:16:26;101089.41;;;14.37;82.37
60371;BME280;48550;40.588;49.684;2023-03-05T13:18:56;101087.94;;;14.29;84.12
60371;BME280;48550;40.588;49.684;2023-03-05T13:21:30;101086.28;;;14.11;86.59
60371;BME280;48550;40.588;49.684;2023-03-05T13:24:01;101080.75;;;14.01;87.09
60371;BME280;48550;40.588;49.684;2023-03-05T13:26:29;101082.06;;;13.98;87.57
60371;BME280;48550;40.588;49.684;2023-03-05T13:29:04;101102.66;;;13.88;87.60
60371;BME280;48550;40.588;49.684;2023-03-05T13:31:31;101115.66;;;13.91;87.15
60371;BME280;48550;40.588;49.684;2023-03-05T13:34:22;101120.41;;;13.84;87.59
60371;BME280;48550;40.588;49.684;2023-03-05T13:37:02;101125.72;;;13.79;87.48
60371;BME280;48550;40.588;49.684;2023-03-05T13:39:42;101139.78;;;13.81;86.04
60371;BME280;48550;40.588;49.684;2023-03-05T13:42:26;101136.00;;;13.82;83.91
60371;BME280;48550;40.588;49.684;2023-03-05T13:44:54;101137.75;;;13.88;82.39
60371;BME280;48550;40.588;49.684;2023-03-05T13:47:22;101132.59;;;13.86;82.72
60371;BME280;48550;40.588;49.684;2023-03-05T13:49:55;101137.56;;;13.78;82.94
60371;BME280;48550;40.588;49.684;2023-03-05T13:52:27;101142.72;;;13.79;83.23
60371;BME280;48550;40.588;49.684;2023-03-05T13:54:55;101147.28;;;13.79;83.51
60371;BME280;48550;40.588;49.684;2023-03-05T13:57:43;101145.56;;;13.73;84.57
60371;BME280;48550;40.588;49.684;2023-03-05T14:02:51;101138.94;;;13.63;84.87
60371;BME280;48550;40.588;49.684;2023-03-05T14:05:18;101144.34;;;13.63;85.23
60371;BME280;48550;40.588;49.684;2023-03-05T14:07:47;101129.59;;;13.54;86.59